createdAt,value
2023-05-01T00:02:07.894Z,4.40
2023-05-01T00:04:40.312Z,4.90
2023-05-01T00:07:09.981Z,4.50
2023-05-01T00:09:39.494Z,4.40
2023-05-01T00:12:08.975Z,4.90
2023-05-01T00:14:38.558Z,4.70
2023-05-01T00:17:08.239Z,4.50
2023-05-01T00:19:37.857Z,4.40
2023-05-01T00:22:07.667Z,4.90
2023-05-01T00:24:37.547Z,5.10
2023-05-01T00:27:07.025Z,4.70
2023-05-01T00:29:36.507Z,4.20
2023-05-01T00:32:06.255Z,5.20
2023-05-01T00:34:35.666Z,4.70
2023-05-01T00:37:05.264Z,5.00
2023-05-01T00:39:35.813Z,4.60
2023-05-01T00:42:06.944Z,4.70
2023-05-01T00:44:36.628Z,5.00
2023-05-01T00:47:06.713Z,4.80
2023-05-01T00:49:36.527Z,4.70
2023-05-01T00:52:06.586Z,4.30
2023-05-01T00:54:37.855Z,4.30
2023-05-01T00:57:10.046Z,4.90
2023-05-01T00:59:40.219Z,4.20
2023-05-01T01:02:09.739Z,4.90
2023-05-01T01:04:45.995Z,4.70
2023-05-01T01:08:12.214Z,5.80
2023-05-01T01:10:58.242Z,4.90
2023-05-01T01:13:39.901Z,4.70
2023-05-01T01:16:23.846Z,5.10
2023-05-01T01:19:20.942Z,5.70
2023-05-01T01:21:55.833Z,5.00
2023-05-01T01:24:51.208Z,4.70
2023-05-01T01:27:58.314Z,4.50
2023-05-01T01:30:49.832Z,5.40
2023-05-01T01:33:49.272Z,4.80
2023-05-01T01:37:08.714Z,5.20
2023-05-01T01:40:16.652Z,4.80
2023-05-01T01:42:59.139Z,4.70
2023-05-01T01:45:45.905Z,4.90
2023-05-01T01:48:24.621Z,5.70
2023-05-01T01:50:58.616Z,4.90
2023-05-01T01:53:31.942Z,4.50
2023-05-01T01:56:06.709Z,5.60
2023-05-01T01:58:40.925Z,6.30
2023-05-01T02:01:12.383Z,5.20
2023-05-01T02:03:44.390Z,5.20
2023-05-01T02:06:16.341Z,5.60
2023-05-01T02:08:49.206Z,4.80
2023-05-01T02:11:22.303Z,5.70
2023-05-01T02:13:55.138Z,5.40
2023-05-01T02:18:58.311Z,4.90
2023-05-01T02:21:31.927Z,5.40
2023-05-01T02:24:03.041Z,4.30
2023-05-01T02:26:56.099Z,4.60
2023-05-01T02:29:26.991Z,5.50
2023-05-01T02:32:08.908Z,5.20
2023-05-01T02:34:39.401Z,5.10
2023-05-01T02:37:14.123Z,5.20
2023-05-01T02:39:44.714Z,5.60
2023-05-01T02:42:19.144Z,5.20
2023-05-01T02:45:03.419Z,4.60
2023-05-01T02:47:43.596Z,4.80
2023-05-01T02:50:15.348Z,4.60
2023-05-01T02:52:51.056Z,4.80
2023-05-01T02:55:44.763Z,4.30
2023-05-01T02:58:21.465Z,5.30
2023-05-01T03:00:51.787Z,4.90
2023-05-01T03:03:22.298Z,4.20
2023-05-01T03:05:52.319Z,5.10
2023-05-01T03:08:23.371Z,4.90
2023-05-01T03:11:07.045Z,5.50
2023-05-01T03:13:36.658Z,5.40
2023-05-01T03:16:06.660Z,4.50
2023-05-01T03:18:37.015Z,5.70
2023-05-01T03:21:29.678Z,6.00
2023-05-01T03:24:01.732Z,5.80
2023-05-01T03:26:33.142Z,6.60
2023-05-01T03:29:03.461Z,6.00
2023-05-01T03:31:34.898Z,5.20
2023-05-01T03:34:04.817Z,6.00
2023-05-01T03:36:34.582Z,5.40
2023-05-01T03:39:05.093Z,5.90
2023-05-01T03:42:30.949Z,5.60
2023-05-01T03:45:04.362Z,6.10
2023-05-01T03:47:54.226Z,6.60
2023-05-01T03:50:24.250Z,6.20
2023-05-01T03:52:54.931Z,6.10
2023-05-01T03:55:25.097Z,6.30
2023-05-01T03:57:55.344Z,7.00
2023-05-01T04:00:25.465Z,5.80
2023-05-01T04:02:56.942Z,6.40
2023-05-01T04:05:26.899Z,6.30
2023-05-01T04:08:00.632Z,5.60
2023-05-01T04:10:30.162Z,5.50
2023-05-01T04:13:12.284Z,6.00
2023-05-01T04:15:46.893Z,6.10
2023-05-01T04:18:17.665Z,5.90
2023-05-01T04:20:52.764Z,5.70
2023-05-01T04:23:24.757Z,6.10
2023-05-01T04:25:55.532Z,5.30
2023-05-01T04:28:25.514Z,6.20
2023-05-01T04:30:56.005Z,4.60
2023-05-01T04:33:26.123Z,5.50
2023-05-01T04:35:55.810Z,4.30
2023-05-01T04:38:29.132Z,4.90
2023-05-01T04:40:59.247Z,4.20
2023-05-01T04:43:28.725Z,5.30
2023-05-01T04:45:59.780Z,4.90
2023-05-01T04:48:30.604Z,5.70
2023-05-01T04:51:05.122Z,5.90
2023-05-01T04:53:36.874Z,6.10
2023-05-01T04:56:07.460Z,5.70
2023-05-01T04:58:49.122Z,6.60
2023-05-01T05:01:22.899Z,5.70
2023-05-01T05:03:55.240Z,5.90
2023-05-01T05:06:27.180Z,5.70
2023-05-01T05:08:58.134Z,6.10
2023-05-01T05:11:30.614Z,6.50
2023-05-01T05:14:04.281Z,5.60
2023-05-01T05:16:35.220Z,6.00
2023-05-01T05:19:05.010Z,6.20
2023-05-01T05:21:38.046Z,7.70
2023-05-01T05:24:08.662Z,7.70
2023-05-01T05:26:38.352Z,6.80
2023-05-01T05:29:08.879Z,6.70
2023-05-01T05:31:39.121Z,7.40
2023-05-01T05:34:09.523Z,6.90
2023-05-01T05:36:39.341Z,7.70
2023-05-01T05:39:08.939Z,8.60
2023-05-01T05:41:39.805Z,8.80
2023-05-01T05:44:09.321Z,8.50
2023-05-01T05:46:39.306Z,7.50
2023-05-01T05:49:09.537Z,8.30
2023-05-01T05:51:39.167Z,10.00
2023-05-01T05:54:12.790Z,9.30
2023-05-01T05:56:43.585Z,8.00
2023-05-01T05:59:16.613Z,8.30
2023-05-01T06:01:47.513Z,9.80
2023-05-01T06:04:17.132Z,9.00
2023-05-01T06:06:47.686Z,10.30
2023-05-01T06:09:19.216Z,10.30
2023-05-01T06:11:52.614Z,8.60
2023-05-01T06:14:22.564Z,8.60
2023-05-01T06:16:52.181Z,8.40
2023-05-01T06:19:21.841Z,8.10
2023-05-01T06:21:54.358Z,7.60
2023-05-01T06:24:23.937Z,7.90
2023-05-01T06:26:56.100Z,7.80
2023-05-01T06:29:25.798Z,7.80
2023-05-01T06:32:05.765Z,6.60
2023-05-01T06:34:35.793Z,6.60
2023-05-01T06:37:08.191Z,6.90
2023-05-01T06:39:37.856Z,7.00
2023-05-01T06:42:21.807Z,6.40
2023-05-01T06:44:57.554Z,6.80
2023-05-01T06:47:28.623Z,7.50
2023-05-01T06:50:00.290Z,7.50
2023-05-01T06:52:33.049Z,5.60
2023-05-01T06:55:02.549Z,6.20
2023-05-01T06:57:32.495Z,6.50
2023-05-01T07:00:05.744Z,6.60
2023-05-01T07:02:38.366Z,6.60
2023-05-01T07:05:08.661Z,5.70
2023-05-01T07:07:42.228Z,5.50
2023-05-01T07:10:19.844Z,6.50
2023-05-01T07:12:51.717Z,6.60
2023-05-01T07:15:21.539Z,6.50
2023-05-01T07:18:14.290Z,6.30
2023-05-01T07:20:43.795Z,6.30
2023-05-01T07:23:24.575Z,6.30
2023-05-01T07:25:56.184Z,6.10
2023-05-01T07:28:28.431Z,5.70
2023-05-01T07:31:01.877Z,6.20
2023-05-01T07:33:36.930Z,5.50
2023-05-01T07:36:06.575Z,5.80
2023-05-01T07:38:45.563Z,5.80
2023-05-01T07:41:16.521Z,5.50
